Time;durP1;ratioP1;P1;durP2;ratioP2;P2;SDS_P1;SDS_P2;PMS_P1;PMS_P2;Temp;Humidity;BMP_temperature;BMP_pressure;BME280_temperature;BME280_humidity;BME280_pressure;Samples;Min_cycle;Max_cycle;Signal;HPM_P1;HPM_P2
2021/03/22 00:00:09;;;;;;;9.23;7.57;;;;;;;0.30;88.06;95708.75;5057210;28;20240;-68
2021/03/22 00:02:37;;;;;;;7.20;6.57;;;;;;;0.24;88.14;95708.25;5053378;28;20230;-66
2021/03/22 00:05:05;;;;;;;8.73;7.93;;;;;;;0.16;88.50;95702.84;5053342;28;20228;-66
2021/03/22 00:07:32;;;;;;;9.30;6.07;;;;;;;0.11;89.08;95698.97;5074629;28;20216;-68
2021/03/22 00:09:59;;;;;;;10.47;9.60;;;;;;;0.19;88.55;95701.78;5064539;28;20482;-68
2021/03/22 00:12:26;;;;;;;9.77;7.43;;;;;;;0.08;89.66;95710.38;5075350;28;20251;-68
2021/03/22 00:14:53;;;;;;;9.80;8.13;;;;;;;0.06;89.28;95717.47;5071693;28;20277;-67
2021/03/22 00:17:20;;;;;;;10.67;7.63;;;;;;;0.00;88.75;95702.41;5058327;28;20221;-68
2021/03/22 00:19:48;;;;;;;11.40;8.63;;;;;;;-0.03;89.83;95703.44;5066388;28;20996;-68
2021/03/22 00:22:15;;;;;;;13.67;8.97;;;;;;;-0.07;89.54;95704.63;5072434;28;20457;-67
2021/03/22 00:24:42;;;;;;;11.13;9.63;;;;;;;-0.01;89.59;95692.94;5063870;28;20285;-68
2021/03/22 00:27:09;;;;;;;10.87;7.60;;;;;;;0.07;89.32;95698.34;5053778;28;21849;-68
2021/03/22 00:29:36;;;;;;;7.43;6.73;;;;;;;0.15;88.47;95685.63;5069855;28;20243;-68
2021/03/22 00:32:04;;;;;;;9.07;8.17;;;;;;;0.11;88.69;95689.41;5081822;28;20477;-67
2021/03/22 00:34:31;;;;;;;9.27;8.37;;;;;;;0.12;87.91;95685.88;5062671;28;20237;-68
2021/03/22 00:36:59;;;;;;;11.57;10.47;;;;;;;-0.07;87.77;95685.66;5066883;28;20575;-68
2021/03/22 00:39:26;;;;;;;8.13;7.47;;;;;;;-0.18;88.68;95688.22;5069332;28;20226;-68
2021/03/22 00:41:53;;;;;;;7.40;6.70;;;;;;;-0.26;89.22;95680.22;5078541;28;20267;-68
2021/03/22 00:44:20;;;;;;;7.80;7.10;;;;;;;-0.35;88.89;95682.56;5074314;28;20235;-68
2021/03/22 00:46:47;;;;;;;13.57;7.87;;;;;;;-0.38;89.72;95682.78;5063011;28;20284;-68
2021/03/22 00:49:14;;;;;;;9.87;7.33;;;;;;;-0.42;89.88;95686.56;5069510;28;20556;-67
2021/03/22 00:51:41;;;;;;;8.00;7.20;;;;;;;-0.17;89.70;95682.13;5061225;28;20230;-68
2021/03/22 00:54:09;;;;;;;8.77;7.97;;;;;;;-0.13;89.82;95683.50;5068581;28;20519;-68
2021/03/22 00:56:36;;;;;;;10.53;8.77;;;;;;;-0.05;88.94;95688.94;5063685;28;20474;-68
2021/03/22 00:59:03;;;;;;;10.27;9.37;;;;;;;0.01;89.97;95683.28;5076379;28;20924;-69
2021/03/22 01:01:30;;;;;;;9.97;8.00;;;;;;;-0.04;89.46;95685.41;5085927;28;20260;-66
2021/03/22 01:03:57;;;;;;;9.10;8.20;;;;;;;-0.02;89.87;95680.91;5065686;28;20232;-68
2021/03/22 01:06:25;;;;;;;8.63;7.70;;;;;;;0.00;89.82;95676.47;5080315;28;20456;-68
2021/03/22 01:08:52;;;;;;;10.37;9.30;;;;;;;-0.06;90.09;95674.31;5080536;28;20518;-68
2021/03/22 01:11:22;;;;;;;10.70;8.70;;;;;;;-0.16;90.74;95681.16;5059781;28;20729;-67
2021/03/22 01:13:52;;;;;;;13.13;10.87;;;;;;;-0.14;91.15;95671.50;5061133;28;20456;-68
2021/03/22 01:16:22;;;;;;;12.57;8.67;;;;;;;-0.08;90.89;95677.03;5066385;28;20524;-68
2021/03/22 01:18:51;;;;;;;11.43;9.63;;;;;;;-0.14;91.20;95674.09;5066765;28;20225;-67
2021/03/22 01:21:24;;;;;;;12.10;10.87;;;;;;;-0.13;91.23;95671.38;5056751;28;20226;-68
2021/03/22 01:23:52;;;;;;;11.27;9.60;;;;;;;-0.13;91.88;95665.34;5059660;28;20456;-68
2021/03/22 01:26:23;;;;;;;15.70;10.77;;;;;;;-0.09;91.47;95662.44;5053096;28;20469;-67
2021/03/22 01:28:50;;;;;;;11.07;9.53;;;;;;;-0.12;91.35;95656.63;5056094;28;20226;-68
2021/03/22 01:31:17;;;;;;;12.27;10.60;;;;;;;-0.13;92.04;95655.00;5059377;28;20526;-68
2021/03/22 01:33:49;;;;;;;14.87;10.77;;;;;;;-0.10;91.91;95649.56;5063494;28;20479;-67
2021/03/22 01:36:18;;;;;;;11.70;9.60;;;;;;;-0.10;91.22;95649.56;5045985;28;20477;-68
2021/03/22 01:38:45;;;;;;;18.23;10.60;;;;;;;-0.11;91.44;95658.28;5057308;28;20508;-67
2021/03/22 01:41:35;;;;;;;12.10;10.70;;;;;;;-0.11;92.02;95660.88;5070742;28;20538;-68
2021/03/22 01:44:16;;;;;;;13.80;11.33;;;;;;;-0.09;91.79;95658.97;5065486;28;20464;-68
2021/03/22 01:46:46;;;;;;;17.37;11.97;;;;;;;-0.11;91.17;95653.91;5068068;28;20465;-68
2021/03/22 01:49:13;;;;;;;12.33;8.77;;;;;;;-0.17;91.48;95654.41;5057271;28;20462;-68
2021/03/22 01:51:41;;;;;;;22.57;10.07;;;;;;;-0.18;91.68;95646.72;5045366;28;20474;-67
2021/03/22 01:54:10;;;;;;;13.53;10.50;;;;;;;-0.17;91.73;95643.22;5059795;28;20480;-68
2021/03/22 01:56:47;;;;;;;18.50;11.37;;;;;;;-0.19;91.87;95647.66;5070223;28;20469;-68
2021/03/22 01:59:17;;;;;;;17.10;11.37;;;;;;;-0.19;91.88;95635.53;5071798;28;20464;-67
2021/03/22 02:01:50;;;;;;;14.37;10.50;;;;;;;-0.18;92.13;95641.53;5064909;28;20477;-68
2021/03/22 02:04:20;;;;;;;15.87;11.43;;;;;;;-0.16;91.91;95635.31;5060420;28;20463;-67
2021/03/22 02:06:48;;;;;;;11.63;10.43;;;;;;;-0.16;91.60;95639.69;5074609;28;20544;-67
2021/03/22 02:09:15;;;;;;;16.57;12.67;;;;;;;-0.16;92.02;95637.09;5066878;28;20482;-68
2021/03/22 02:11:43;;;;;;;21.17;12.70;;;;;;;-0.16;92.27;95639.69;5078677;28;20468;-68
2021/03/22 02:14:12;;;;;;;10.87;9.43;;;;;;;-0.14;92.10;95633.41;5043710;28;20468;-67
2021/03/22 02:17:09;;;;;;;25.17;14.17;;;;;;;-0.13;91.53;95639.44;5056064;28;20552;-67
2021/03/22 02:20:26;;;;;;;12.47;10.60;;;;;;;-0.13;91.83;95640.25;5067988;28;20465;-66
2021/03/22 02:23:22;;;;;;;9.93;8.67;;;;;;;-0.08;91.87;95632.13;5064561;28;20727;-68
2021/03/22 02:25:56;;;;;;;14.63;11.67;;;;;;;-0.04;91.46;95649.09;5052727;28;20541;-67
2021/03/22 02:28:51;;;;;;;15.60;10.67;;;;;;;-0.02;91.13;95654.97;5051318;28;20452;-67
2021/03/22 02:31:40;;;;;;;17.63;11.53;;;;;;;-0.01;91.63;95659.22;5064004;28;20457;-67
2021/03/22 02:34:34;;;;;;;30.80;11.43;;;;;;;0.04;90.97;95662.28;5059278;28;20468;-67
2021/03/22 02:37:25;;;;;;;25.90;11.63;;;;;;;0.02;90.41;95666.78;5050054;28;20462;-68
2021/03/22 02:40:04;;;;;;;14.47;10.53;;;;;;;0.06;90.74;95662.16;5071611;28;20456;-66
2021/03/22 02:42:32;;;;;;;11.93;10.67;;;;;;;0.10;90.67;95656.63;5064883;28;20481;-67
2021/03/22 02:44:59;;;;;;;16.03;10.23;;;;;;;0.03;90.38;95650.25;5062618;28;20481;-68
2021/03/22 02:47:30;;;;;;;14.57;9.77;;;;;;;0.04;90.54;95653.69;5065699;28;20663;-68
2021/03/22 02:50:00;;;;;;;12.97;9.40;;;;;;;0.05;90.20;95657.91;5077412;28;20965;-67
2021/03/22 02:52:46;;;;;;;9.93;8.07;;;;;;;0.05;90.63;95674.31;5071233;28;20737;-67
2021/03/22 02:55:26;;;;;;;11.50;9.47;;;;;;;0.05;89.97;95669.13;5059593;28;20468;-66
2021/03/22 02:57:57;;;;;;;18.57;9.63;;;;;;;0.06;90.53;95665.59;5061341;28;20467;-68
2021/03/22 03:00:29;;;;;;;15.40;8.77;;;;;;;0.08;90.36;95674.06;5073696;28;21053;-68
2021/03/22 03:03:00;;;;;;;17.30;10.37;;;;;;;0.11;90.54;95675.63;5064281;28;20497;-68
2021/03/22 03:05:30;;;;;;;11.53;8.20;;;;;;;0.14;90.38;95681.38;5048010;28;20469;-68
2021/03/22 03:07:58;;;;;;;14.93;8.87;;;;;;;0.17;89.95;95683.72;5059615;28;20965;-68
2021/03/22 03:10:26;;;;;;;10.87;8.30;;;;;;;0.17;89.70;95678.53;5062320;28;20848;-67
2021/03/22 03:12:53;;;;;;;15.57;10.63;;;;;;;0.14;89.94;95683.97;5075335;28;20524;-68
2021/03/22 03:15:22;;;;;;;9.90;7.87;;;;;;;0.18;89.31;95688.00;5072031;28;20468;-68
2021/03/22 03:17:49;;;;;;;13.43;10.23;;;;;;;0.17;89.18;95688.91;5059985;28;20485;-68
2021/03/22 03:20:18;;;;;;;14.80;8.73;;;;;;;0.18;89.62;95700.97;5069834;28;20480;-67
2021/03/22 03:22:46;;;;;;;18.70;9.10;;;;;;;0.18;89.59;95698.38;5071792;28;20861;-68
2021/03/22 03:25:14;;;;;;;13.13;9.07;;;;;;;0.21;89.28;95695.53;5053306;28;20928;-67
2021/03/22 03:27:41;;;;;;;18.53;8.93;;;;;;;0.20;89.39;95704.25;5064934;28;20478;-67
2021/03/22 03:30:11;;;;;;;14.60;9.57;;;;;;;0.17;89.21;95709.66;5059751;28;20529;-68
2021/03/22 03:32:38;;;;;;;15.10;9.87;;;;;;;0.16;89.54;95718.41;5079988;28;20468;-67
2021/03/22 03:35:08;;;;;;;22.53;10.53;;;;;;;0.16;88.94;95709.78;5052016;28;20532;-67
2021/03/22 03:37:35;;;;;;;15.83;7.47;;;;;;;0.22;89.09;95707.56;5088394;28;20472;-67
2021/03/22 03:40:06;;;;;;;12.07;7.87;;;;;;;0.20;88.57;95704.25;5062420;28;20528;-68
2021/03/22 03:42:33;;;;;;;11.30;7.93;;;;;;;0.14;89.08;95703.91;5067058;28;20697;-67
2021/03/22 03:45:00;;;;;;;20.40;9.43;;;;;;;0.14;89.46;95714.28;5068480;28;20267;-68
2021/03/22 03:47:27;;;;;;;11.17;8.27;;;;;;;0.11;89.11;95702.38;5062725;28;20470;-68
2021/03/22 03:49:54;;;;;;;17.93;8.43;;;;;;;0.14;89.04;95709.91;5048136;28;20424;-68
2021/03/22 03:52:21;;;;;;;11.13;8.87;;;;;;;0.10;88.70;95703.34;5077144;28;20457;-68
2021/03/22 03:54:47;;;;;;;12.07;6.50;;;;;;;0.10;88.48;95698.13;5072713;28;20515;-67
2021/03/22 03:57:15;;;;;;;14.77;7.33;;;;;;;0.13;88.89;95703.09;5055360;28;20538;-68
2021/03/22 03:59:42;;;;;;;10.53;5.10;;;;;;;0.14;88.45;95704.72;5078971;28;20474;-68
2021/03/22 04:02:09;;;;;;;14.53;7.20;;;;;;;0.08;88.49;95702.59;5087533;28;20482;-68
2021/03/22 04:04:36;;;;;;;16.50;8.40;;;;;;;0.09;88.69;95706.03;5053721;28;20880;-67
2021/03/22 04:07:03;;;;;;;8.83;6.27;;;;;;;0.09;88.48;95706.03;5046771;28;20227;-67
2021/03/22 04:09:30;;;;;;;16.13;6.63;;;;;;;0.09;88.88;95706.88;5047046;28;20297;-68
2021/03/22 04:11:57;;;;;;;18.83;6.67;;;;;;;0.06;88.59;95706.25;5056474;28;20254;-68
2021/03/22 04:14:27;;;;;;;11.50;6.73;;;;;;;0.04;88.34;95702.97;5074296;28;21110;-68
2021/03/22 04:16:54;;;;;;;12.20;7.57;;;;;;;0.07;88.05;95716.53;5064143;28;20293;-69
2021/03/22 04:19:22;;;;;;;16.87;6.70;;;;;;;0.07;87.54;95719.13;5055256;28;20466;-68
2021/03/22 04:21:49;;;;;;;8.47;5.93;;;;;;;0.09;88.08;95716.41;5059333;28;20221;-68
2021/03/22 04:24:18;;;;;;;9.97;5.67;;;;;;;0.09;87.95;95721.59;5046540;28;20915;-68
2021/03/22 04:26:45;;;;;;;15.27;7.13;;;;;;;0.08;87.34;95725.94;5061979;28;20222;-68
2021/03/22 04:29:12;;;;;;;12.33;6.30;;;;;;;0.05;86.82;95721.00;5068539;28;20281;-69
2021/03/22 04:31:41;;;;;;;11.47;6.33;;;;;;;0.04;87.44;95721.97;5059573;28;20227;-67
2021/03/22 04:34:08;;;;;;;9.97;5.70;;;;;;;0.05;87.35;95735.75;5042636;28;20225;-68
2021/03/22 04:36:37;;;;;;;10.63;6.33;;;;;;;0.01;87.99;95729.97;5047762;28;20602;-68
2021/03/22 04:39:05;;;;;;;16.33;6.43;;;;;;;-0.02;88.27;95719.81;5061753;28;20285;-68
2021/03/22 04:41:33;;;;;;;9.87;4.60;;;;;;;-0.02;87.64;95719.81;5046738;28;20429;-68
2021/03/22 04:44:00;;;;;;;13.33;5.37;;;;;;;-0.09;87.66;95723.81;5047126;28;20237;-68
2021/03/22 04:46:27;;;;;;;8.17;6.90;;;;;;;-0.08;88.17;95720.31;5065939;28;20234;-67
2021/03/22 04:49:01;;;;;;;11.53;6.87;;;;;;;-0.09;88.66;95729.88;5062504;28;20228;-68
2021/03/22 04:51:28;;;;;;;14.07;7.47;;;;;;;-0.10;88.77;95722.19;5062827;28;20685;-68
2021/03/22 04:53:55;;;;;;;9.17;6.37;;;;;;;-0.08;88.99;95720.31;5071745;28;20237;-68
2021/03/22 04:56:23;;;;;;;16.37;6.17;;;;;;;-0.06;88.04;95711.47;5074132;28;20230;-68
2021/03/22 04:58:50;;;;;;;8.97;6.17;;;;;;;-0.02;88.94;95719.81;5070326;28;20725;-68
2021/03/22 05:01:17;;;;;;;11.97;8.70;;;;;;;-0.07;88.65;95727.97;5063217;28;20738;-67
2021/03/22 05:03:45;;;;;;;13.47;6.00;;;;;;;-0.12;87.80;95722.28;5053729;28;20494;-67
2021/03/22 05:06:13;;;;;;;11.37;5.37;;;;;;;-0.13;88.31;95717.22;5059121;28;20235;-68
2021/03/22 05:08:40;;;;;;;14.90;7.07;;;;;;;-0.18;89.05;95719.34;5063327;28;20224;-67
2021/03/22 05:11:07;;;;;;;19.13;5.23;;;;;;;-0.18;88.27;95716.75;5050693;28;20694;-66
2021/03/22 05:13:34;;;;;;;15.00;6.83;;;;;;;-0.13;88.64;95722.41;5061017;28;20525;-67
2021/03/22 05:16:02;;;;;;;14.10;7.23;;;;;;;-0.14;88.37;95721.59;5060391;28;20591;-66
2021/03/22 05:18:31;;;;;;;11.63;6.03;;;;;;;-0.11;88.60;95730.91;5064153;28;20251;-67
2021/03/22 05:21:02;;;;;;;13.40;6.90;;;;;;;-0.13;88.52;95730.19;5071840;28;20235;-67
2021/03/22 05:23:32;;;;;;;10.17;4.60;;;;;;;-0.07;88.46;95727.16;5080760;28;20223;-67
2021/03/22 05:25:59;;;;;;;11.00;5.53;;;;;;;-0.11;88.07;95730.91;5074598;28;20231;-67
2021/03/22 05:28:29;;;;;;;13.27;5.50;;;;;;;-0.15;88.84;95724.31;5073006;28;20217;-67
2021/03/22 05:30:56;;;;;;;19.40;6.70;;;;;;;-0.06;88.78;95733.97;5059973;28;20317;-67
2021/03/22 05:33:24;;;;;;;16.57;5.03;;;;;;;-0.12;88.49;95739.63;5066476;28;20769;-67
2021/03/22 05:35:54;;;;;;;13.40;6.37;;;;;;;-0.03;87.64;95734.56;5069425;28;20231;-68
2021/03/22 05:38:21;;;;;;;16.07;6.80;;;;;;;-0.04;87.86;95732.91;5056991;28;20254;-66
2021/03/22 05:40:52;;;;;;;6.73;6.03;;;;;;;-0.02;87.20;95736.22;5061074;28;20312;-67
2021/03/22 05:43:38;;;;;;;17.13;6.33;;;;;;;-0.07;88.03;95733.16;5074800;28;20558;-67
2021/03/22 05:46:12;;;;;;;14.93;7.23;;;;;;;-0.02;87.20;95745.75;5050460;28;20509;-67
2021/03/22 05:49:02;;;;;;;16.50;7.47;;;;;;;-0.01;87.50;95755.19;5063378;28;20541;-66
2021/03/22 05:51:44;;;;;;;20.53;7.67;;;;;;;0.07;87.05;95749.44;5065428;28;20942;-66
2021/03/22 05:54:38;;;;;;;8.23;6.17;;;;;;;0.07;86.93;95745.06;5057050;28;20851;-67
2021/03/22 05:57:14;;;;;;;16.03;7.57;;;;;;;0.17;86.47;95740.81;5043437;28;20467;-66
2021/03/22 05:59:45;;;;;;;13.77;4.43;;;;;;;0.16;86.64;95749.53;5058490;28;20481;-67
2021/03/22 06:02:20;;;;;;;9.53;4.00;;;;;;;0.19;86.34;95754.50;5065869;28;20668;-68
2021/03/22 06:04:52;;;;;;;6.63;4.23;;;;;;;0.20;85.73;95758.75;5060593;28;20457;-67
2021/03/22 06:07:21;;;;;;;13.67;4.63;;;;;;;0.26;86.16;95763.47;5061775;28;21029;-68
2021/03/22 06:09:53;;;;;;;8.23;5.20;;;;;;;0.37;85.43;95760.06;5059476;28;20523;-67
2021/03/22 06:12:35;;;;;;;13.83;4.73;;;;;;;0.44;85.23;95762.97;5065571;28;20480;-67
2021/03/22 06:15:14;;;;;;;11.07;3.77;;;;;;;0.62;85.14;95756.34;5062476;28;20242;-67
2021/03/22 06:17:45;;;;;;;10.17;4.90;;;;;;;0.62;83.72;95756.34;5064966;28;20262;-67
2021/03/22 06:20:18;;;;;;;13.57;4.57;;;;;;;0.68;83.00;95766.25;5065631;28;20697;-67
2021/03/22 06:22:47;;;;;;;9.37;3.77;;;;;;;0.79;82.69;95774.03;5063062;28;20690;-68
2021/03/22 06:25:17;;;;;;;12.43;4.33;;;;;;;0.78;82.85;95771.56;5060204;28;20239;-67
2021/03/22 06:27:51;;;;;;;8.20;5.40;;;;;;;0.76;82.66;95776.88;5054661;28;20720;-66
2021/03/22 06:30:22;;;;;;;9.97;4.77;;;;;;;0.80;82.21;95780.88;5065970;28;20228;-67
2021/03/22 06:32:52;;;;;;;10.33;4.00;;;;;;;0.94;80.92;95792.78;5061653;28;20224;-66
2021/03/22 06:35:24;;;;;;;12.53;5.93;;;;;;;0.85;81.62;95786.53;5060508;28;20302;-67
2021/03/22 06:37:51;;;;;;;11.20;4.33;;;;;;;0.91;81.17;95793.00;5059674;28;20270;-66
2021/03/22 06:40:31;;;;;;;7.70;3.13;;;;;;;0.96;81.06;95795.25;5059043;28;20243;-67
2021/03/22 06:43:07;;;;;;;20.67;5.00;;;;;;;1.10;80.78;95787.19;5057257;28;20284;-67
2021/03/22 06:45:36;;;;;;;11.93;6.97;;;;;;;1.03;80.19;95799.84;5055393;28;20229;-67
2021/03/22 06:48:16;;;;;;;8.97;3.93;;;;;;;1.00;80.81;95804.44;5058820;28;20256;-68
2021/03/22 06:50:44;;;;;;;7.33;3.77;;;;;;;0.97;80.47;95791.72;5056286;28;20263;-66
2021/03/22 06:53:30;;;;;;;12.43;6.83;;;;;;;1.04;80.17;95798.06;5063730;28;20281;-67
2021/03/22 06:56:13;;;;;;;10.90;4.20;;;;;;;0.87;80.11;95807.19;5059296;28;20223;-67
2021/03/22 06:58:41;;;;;;;9.73;4.93;;;;;;;0.99;80.05;95802.78;5063826;28;20215;-67
2021/03/22 07:01:23;;;;;;;11.47;4.60;;;;;;;0.90;79.82;95800.94;5062766;28;20234;-67
2021/03/22 07:03:51;;;;;;;20.87;4.53;;;;;;;0.90;79.76;95806.13;5064457;28;20295;-67
2021/03/22 07:06:22;;;;;;;15.40;6.13;;;;;;;0.96;80.50;95795.25;5061597;28;20215;-66
2021/03/22 07:08:50;;;;;;;12.37;4.87;;;;;;;1.10;80.30;95810.59;5062984;28;20308;-67
2021/03/22 07:11:20;;;;;;;8.37;2.60;;;;;;;0.98;80.71;95801.97;5060693;28;20226;-67
2021/03/22 07:13:57;;;;;;;11.20;4.00;;;;;;;1.11;79.70;95809.63;5058827;28;20242;-67
2021/03/22 07:16:27;;;;;;;10.10;4.37;;;;;;;1.19;79.43;95815.06;5061629;28;20262;-68
2021/03/22 07:19:08;;;;;;;12.23;4.13;;;;;;;1.13;79.75;95812.94;5058495;28;20247;-67
2021/03/22 07:21:47;;;;;;;17.37;4.63;;;;;;;1.25;78.93;95811.13;5061231;28;21385;-67
2021/03/22 07:24:19;;;;;;;6.30;3.63;;;;;;;1.25;80.11;95826.72;5066033;28;20267;-66
2021/03/22 07:26:58;;;;;;;8.93;3.80;;;;;;;1.38;79.55;95836.03;5065261;28;20305;-66
2021/03/22 07:29:42;;;;;;;8.83;4.47;;;;;;;1.29;78.80;95839.34;5066151;28;20288;-68
2021/03/22 07:32:33;;;;;;;15.77;3.93;;;;;;;1.34;78.51;95842.41;5059707;28;20294;-68
2021/03/22 07:35:19;;;;;;;10.77;4.80;;;;;;;1.23;79.15;95841.63;5068726;28;20831;-67
2021/03/22 07:37:58;;;;;;;9.37;4.30;;;;;;;1.23;78.57;95845.03;5067872;28;20280;-67
2021/03/22 07:40:37;;;;;;;11.67;5.40;;;;;;;1.47;78.44;95846.63;5062438;28;20269;-67
2021/03/22 07:43:13;;;;;;;8.60;3.03;;;;;;;1.47;79.07;95847.47;5063093;28;20235;-68
2021/03/22 07:45:57;;;;;;;9.83;3.23;;;;;;;1.67;78.42;95843.25;5061709;28;20227;-68
2021/03/22 07:48:35;;;;;;;16.23;3.87;;;;;;;1.56;78.17;95856.28;5063021;28;20224;-67
2021/03/22 07:51:27;;;;;;;8.20;5.20;;;;;;;1.66;78.55;95841.59;5061554;28;20236;-67
2021/03/22 07:54:02;;;;;;;12.47;4.23;;;;;;;1.61;77.48;95848.94;5057648;28;20222;-68
2021/03/22 07:56:39;;;;;;;12.13;4.03;;;;;;;1.74;76.45;95847.00;5069255;28;20300;-66
2021/03/22 07:59:22;;;;;;;6.93;3.43;;;;;;;1.74;76.94;95843.53;5069813;28;20220;-67
2021/03/22 08:02:09;;;;;;;7.47;3.83;;;;;;;1.68;77.34;95842.28;5066003;28;20625;-67
2021/03/22 08:04:46;;;;;;;11.83;3.50;;;;;;;1.66;76.73;95849.41;5063593;28;20226;-67
2021/03/22 08:07:34;;;;;;;9.77;3.47;;;;;;;1.62;77.05;95846.19;5065100;28;20235;-66
2021/03/22 08:10:24;;;;;;;9.63;4.83;;;;;;;1.69;77.60;95851.75;5055850;28;20305;-68
2021/03/22 08:12:58;;;;;;;9.67;3.83;;;;;;;1.70;76.97;95859.41;5057224;28;20227;-66
2021/03/22 08:15:33;;;;;;;6.33;3.87;;;;;;;1.57;78.47;95863.16;5062008;28;20230;-67
2021/03/22 08:18:18;;;;;;;20.67;6.10;;;;;;;1.42;77.67;95866.00;5063224;28;20246;-67
2021/03/22 08:20:56;;;;;;;13.30;3.63;;;;;;;1.52;78.07;95870.47;5059042;28;20759;-67
2021/03/22 08:23:29;;;;;;;17.13;5.97;;;;;;;1.59;78.68;95859.47;5069349;28;20277;-65
2021/03/22 08:26:01;;;;;;;8.47;4.47;;;;;;;1.40;78.58;95878.31;5062486;28;20228;-67
2021/03/22 08:28:37;;;;;;;4.73;3.57;;;;;;;1.30;78.28;95877.41;5060893;28;20220;-67
2021/03/22 08:31:20;;;;;;;18.20;5.17;;;;;;;1.14;79.32;95874.34;5060840;28;20224;-67
2021/03/22 08:33:54;;;;;;;17.87;5.23;;;;;;;1.29;78.88;95873.16;5059373;28;20319;-67
2021/03/22 08:36:43;;;;;;;17.23;4.13;;;;;;;1.54;81.04;95868.56;5068563;28;20605;-67
2021/03/22 08:39:20;;;;;;;7.60;3.97;;;;;;;1.63;78.07;95878.25;5063295;28;20639;-67
2021/03/22 08:41:56;;;;;;;9.33;5.00;;;;;;;1.70;76.97;95876.78;5063689;28;20845;-67
2021/03/22 08:44:28;;;;;;;12.87;5.07;;;;;;;1.78;77.34;95877.00;5065129;28;20214;-66
2021/03/22 08:47:04;;;;;;;10.93;4.70;;;;;;;1.79;77.03;95889.06;5064874;28;20712;-66
2021/03/22 08:49:47;;;;;;;12.57;4.63;;;;;;;1.85;76.96;95882.53;5064142;28;20521;-67
2021/03/22 08:52:20;;;;;;;12.17;3.57;;;;;;;2.03;77.17;95890.63;5065796;28;20702;-68
2021/03/22 08:54:47;;;;;;;7.27;3.53;;;;;;;1.97;76.43;95891.94;5056554;28;20306;-68
2021/03/22 08:57:24;;;;;;;24.10;7.87;;;;;;;2.19;77.42;95891.00;5055275;28;21179;-67
2021/03/22 09:00:08;;;;;;;7.73;4.40;;;;;;;2.45;75.80;95892.25;5051993;28;20230;-66
2021/03/22 09:02:35;;;;;;;10.30;4.00;;;;;;;2.71;76.00;95897.06;5054867;28;20217;-67
2021/03/22 09:05:18;;;;;;;12.17;5.77;;;;;;;2.36;73.75;95898.22;5062200;28;20242;-67
2021/03/22 09:07:46;;;;;;;12.33;4.83;;;;;;;2.04;74.44;95902.69;5057202;28;20766;-67
2021/03/22 09:10:39;;;;;;;17.33;5.63;;;;;;;1.92;75.29;95902.75;5053549;28;20565;-67
2021/03/22 09:13:24;;;;;;;13.37;3.97;;;;;;;1.98;75.43;95904.81;5057136;28;20218;-67
2021/03/22 09:16:00;;;;;;;15.30;5.43;;;;;;;2.16;77.09;95912.09;5057768;28;20898;-67
2021/03/22 09:18:28;;;;;;;7.47;3.93;;;;;;;2.31;76.89;95916.03;5057520;28;20226;-68
2021/03/22 09:21:22;;;;;;;6.13;4.13;;;;;;;2.35;76.37;95927.84;5059160;28;20227;-70
2021/03/22 09:23:49;;;;;;;4.60;3.70;;;;;;;2.15;76.48;95923.44;5055651;28;20687;-69
2021/03/22 09:26:17;;;;;;;11.00;5.30;;;;;;;2.08;76.87;95925.72;5060193;28;20226;-70
2021/03/22 09:28:58;;;;;;;6.30;3.40;;;;;;;2.31;77.55;95931.66;5067613;28;20279;-69
2021/03/22 09:31:49;;;;;;;8.97;5.97;;;;;;;2.74;76.37;95928.06;5064943;28;20233;-70
2021/03/22 09:34:42;;;;;;;4.97;3.07;;;;;;;2.87;74.71;95927.88;5059568;28;20226;-70
2021/03/22 09:37:47;;;;;;;9.07;3.20;;;;;;;3.04;74.07;95930.69;5063919;28;20221;-67
2021/03/22 09:40:55;;;;;;;4.87;2.87;;;;;;;3.39;73.63;95934.66;5057667;28;20650;-67
2021/03/22 09:43:35;;;;;;;10.17;4.80;;;;;;;3.62;72.06;95930.88;5063202;28;20302;-66
2021/03/22 09:46:32;;;;;;;10.97;3.40;;;;;;;3.76;70.92;95934.06;5069345;28;20573;-67
2021/03/22 09:49:18;;;;;;;6.00;3.87;;;;;;;3.91;70.33;95935.31;5064737;28;20225;-67
2021/03/22 09:51:47;;;;;;;14.03;4.10;;;;;;;4.06;70.28;95928.72;5065819;28;20222;-67
2021/03/22 09:54:38;;;;;;;8.17;2.83;;;;;;;4.17;69.01;95923.34;5060343;28;20316;-67
2021/03/22 09:57:12;;;;;;;6.07;3.47;;;;;;;4.33;67.68;95929.81;5061677;28;20226;-67
2021/03/22 10:00:17;;;;;;;13.70;4.27;;;;;;;4.44;68.83;95916.59;5060038;28;20402;-67
2021/03/22 10:02:47;;;;;;;6.13;3.10;;;;;;;4.46;67.21;95925.94;5071347;28;20350;-67
2021/03/22 10:05:18;;;;;;;11.40;4.00;;;;;;;4.29;66.71;95922.25;5061142;28;20232;-66
2021/03/22 10:07:58;;;;;;;8.37;3.70;;;;;;;4.09;67.06;95930.22;5058233;28;20706;-65
2021/03/22 10:10:30;;;;;;;11.03;3.20;;;;;;;3.88;68.54;95930.38;5062610;28;20247;-67
2021/03/22 10:13:00;;;;;;;4.87;2.53;;;;;;;3.99;69.03;95930.22;5065194;28;20268;-67
2021/03/22 10:15:31;;;;;;;9.40;4.27;;;;;;;4.00;69.06;95927.47;5064103;28;20225;-68
2021/03/22 10:18:06;;;;;;;8.70;6.07;;;;;;;3.90;70.17;95933.66;5054818;28;20718;-67
2021/03/22 10:20:38;;;;;;;9.13;4.10;;;;;;;4.11;69.87;95918.66;5060591;28;20731;-67
2021/03/22 10:23:19;;;;;;;10.43;3.93;;;;;;;4.37;69.34;95923.34;5058873;28;20245;-69
2021/03/22 10:25:49;;;;;;;5.70;3.83;;;;;;;4.54;68.19;95928.69;5055688;28;20222;-68
2021/03/22 10:28:20;;;;;;;4.47;2.47;;;;;;;4.75;67.76;95915.41;5062584;28;20683;-68
2021/03/22 10:30:59;;;;;;;7.13;3.73;;;;;;;4.92;65.63;95915.66;5059320;28;20223;-67
2021/03/22 10:33:27;;;;;;;10.40;4.73;;;;;;;5.00;66.32;95928.84;5062394;28;20276;-68
2021/03/22 10:35:57;;;;;;;7.67;4.17;;;;;;;5.10;64.48;95914.75;5057849;28;20678;-69
2021/03/22 10:38:26;;;;;;;13.00;3.73;;;;;;;4.82;64.23;95916.50;5062498;28;20228;-68
2021/03/22 10:40:56;;;;;;;12.03;4.37;;;;;;;4.23;64.20;95917.59;5063593;28;20450;-68
2021/03/22 10:43:29;;;;;;;5.87;3.90;;;;;;;3.79;64.70;95924.16;5054060;28;20240;-68
2021/03/22 10:45:58;;;;;;;5.57;3.23;;;;;;;4.26;66.23;95911.25;5064936;28;20231;-68
2021/03/22 10:48:30;;;;;;;9.70;5.03;;;;;;;4.56;64.65;95918.09;5054383;28;20234;-68
2021/03/22 10:51:06;;;;;;;8.30;3.13;;;;;;;4.07;61.85;95922.53;5060109;28;20230;-68
2021/03/22 10:53:34;;;;;;;7.07;3.93;;;;;;;4.12;64.42;95917.75;5069169;28;20662;-68
2021/03/22 10:56:20;;;;;;;7.27;1.97;;;;;;;4.38;64.51;95922.38;5057893;28;20215;-67
2021/03/22 10:58:47;;;;;;;10.13;2.53;;;;;;;4.47;61.93;95926.75;5068130;28;20240;-67
2021/03/22 11:01:17;;;;;;;3.70;3.27;;;;;;;4.70;63.90;95917.66;5057054;28;20265;-68
2021/03/22 11:03:48;;;;;;;7.80;4.03;;;;;;;4.56;66.05;95916.28;5054697;28;20487;-68
2021/03/22 11:06:30;;;;;;;4.00;2.60;;;;;;;4.27;65.22;95921.56;5060082;28;20223;-68
2021/03/22 11:09:00;;;;;;;8.87;3.00;;;;;;;4.10;66.51;95927.47;5060886;28;20241;-67
2021/03/22 11:11:31;;;;;;;8.50;2.63;;;;;;;4.43;64.44;95925.41;5056148;28;20224;-68
2021/03/22 11:14:01;;;;;;;2.80;1.50;;;;;;;4.51;63.26;95923.75;5066285;28;20220;-68
2021/03/22 11:16:32;;;;;;;6.87;2.70;;;;;;;3.95;62.79;95934.09;5062160;28;20678;-68
2021/03/22 11:19:21;;;;;;;5.80;3.40;;;;;;;3.76;64.24;95928.84;5059723;28;20222;-66
2021/03/22 11:21:48;;;;;;;9.83;2.83;;;;;;;3.39;64.61;95934.66;5056686;28;20226;-68
2021/03/22 11:24:17;;;;;;;7.10;3.03;;;;;;;3.24;66.40;95931.59;5058852;28;20226;-68
2021/03/22 11:26:58;;;;;;;6.73;3.90;;;;;;;3.17;65.13;95932.25;5062016;28;20280;-68
2021/03/22 11:29:25;;;;;;;7.60;2.80;;;;;;;3.43;67.61;95931.66;5059046;28;20291;-68
2021/03/22 11:31:58;;;;;;;7.13;4.03;;;;;;;3.51;67.06;95938.81;5058032;28;20223;-68
2021/03/22 11:34:30;;;;;;;3.53;2.70;;;;;;;3.41;66.07;95927.53;5063245;28;20682;-68
2021/03/22 11:37:04;;;;;;;3.30;2.20;;;;;;;3.23;64.25;95934.34;5059965;28;20223;-68
2021/03/22 11:39:34;;;;;;;4.27;2.63;;;;;;;3.00;65.62;95944.09;5063748;28;20221;-68
2021/03/22 11:42:07;;;;;;;1.87;1.73;;;;;;;3.19;65.36;95938.16;5071706;28;20412;-67
2021/03/22 11:44:36;;;;;;;5.93;3.90;;;;;;;3.17;63.23;95935.69;5060190;28;20288;-68
2021/03/22 11:47:28;;;;;;;8.50;2.03;;;;;;;2.86;61.76;95932.25;5065510;28;20226;-69
2021/03/22 11:49:57;;;;;;;10.70;3.10;;;;;;;2.99;65.99;95930.25;5064549;28;20238;-69
2021/03/22 11:52:27;;;;;;;5.60;3.23;;;;;;;3.00;67.17;95938.91;5067146;28;20247;-69
2021/03/22 11:54:56;;;;;;;9.20;3.57;;;;;;;3.04;63.75;95935.09;5064677;28;20250;-68
2021/03/22 11:57:28;;;;;;;4.63;1.70;;;;;;;3.05;64.26;95932.34;5064833;28;20598;-68
2021/03/22 11:59:58;;;;;;;2.60;2.20;;;;;;;3.13;65.43;95924.69;5065126;28;20679;-69
2021/03/22 12:02:32;;;;;;;3.77;1.40;;;;;;;3.19;64.99;95932.94;5065946;28;20225;-68